createdAt,value
2023-02-01T00:02:51.185Z,8.78
2023-02-01T00:07:52.679Z,8.83
2023-02-01T00:12:54.135Z,8.84
2023-02-01T00:17:55.989Z,8.98
2023-02-01T00:22:57.461Z,8.76
2023-02-01T00:28:00.314Z,8.94
2023-02-01T00:33:01.811Z,8.98
2023-02-01T00:38:03.318Z,8.69
2023-02-01T00:43:04.783Z,9.01
2023-02-01T00:48:06.370Z,9.17
2023-02-01T00:53:07.842Z,8.87
2023-02-01T00:58:10.281Z,9.02
2023-02-01T01:03:20.708Z,8.69
2023-02-01T01:08:22.303Z,8.99
2023-02-01T01:13:23.782Z,9.24
2023-02-01T01:18:25.297Z,9.40
2023-02-01T01:23:26.788Z,9.25
2023-02-01T01:28:28.254Z,9.38
2023-02-01T01:33:29.866Z,9.26
2023-02-01T01:38:31.338Z,9.35
2023-02-01T01:44:05.648Z,9.60
2023-02-01T01:49:18.999Z,9.81
2023-02-01T01:54:44.339Z,9.33
2023-02-01T01:59:48.587Z,9.35
2023-02-01T02:04:50.065Z,9.47
2023-02-01T02:10:00.481Z,9.42
2023-02-01T02:15:02.188Z,9.55
2023-02-01T02:20:31.425Z,9.93
2023-02-01T02:25:51.269Z,9.53
2023-02-01T02:31:04.718Z,9.13
2023-02-01T02:36:12.097Z,9.00
2023-02-01T02:41:48.592Z,9.30
2023-02-01T02:47:09.107Z,9.75
2023-02-01T02:52:33.699Z,9.44
2023-02-01T02:57:57.754Z,9.45
2023-02-01T03:03:17.510Z,8.59
2023-02-01T03:08:23.372Z,8.64
2023-02-01T03:13:46.756Z,8.26
2023-02-01T03:18:52.315Z,8.26
2023-02-01T03:23:54.536Z,8.21
2023-02-01T03:28:57.170Z,8.24
2023-02-01T03:33:58.818Z,7.97
2023-02-01T03:39:20.158Z,8.20
2023-02-01T03:44:27.173Z,8.48
2023-02-01T03:49:49.733Z,8.39
2023-02-01T03:54:51.638Z,8.78
2023-02-01T03:59:53.110Z,7.84
2023-02-01T04:04:54.583Z,7.53
2023-02-01T04:09:56.081Z,7.46
2023-02-01T04:14:57.557Z,8.01
2023-02-01T04:19:59.023Z,8.31
2023-02-01T04:25:00.500Z,8.41
2023-02-01T04:30:02.100Z,8.45
2023-02-01T04:35:03.993Z,8.66
2023-02-01T04:40:05.981Z,8.81
2023-02-01T04:45:07.868Z,9.14
2023-02-01T04:50:11.341Z,8.85
2023-02-01T04:55:14.246Z,8.82
2023-02-01T05:00:16.242Z,9.17
2023-02-01T05:05:17.738Z,9.45
2023-02-01T05:10:19.208Z,9.31
2023-02-01T05:15:20.708Z,9.42
2023-02-01T05:20:22.465Z,9.34
2023-02-01T05:25:24.119Z,9.27
2023-02-01T05:30:25.738Z,9.21
2023-02-01T05:35:27.265Z,9.58
2023-02-01T05:40:28.743Z,9.34
2023-02-01T05:45:30.239Z,9.04
2023-02-01T05:50:31.719Z,9.21
2023-02-01T05:55:33.324Z,9.07
2023-02-01T06:00:34.889Z,9.23
2023-02-01T06:05:36.365Z,9.27
2023-02-01T06:10:37.875Z,8.93
2023-02-01T06:15:39.461Z,9.03
2023-02-01T06:20:40.937Z,9.52
2023-02-01T06:25:42.397Z,9.61
2023-02-01T06:30:46.935Z,9.61
2023-02-01T06:35:48.678Z,9.60
2023-02-01T06:40:53.623Z,9.50
2023-02-01T06:45:59.552Z,9.60
2023-02-01T06:51:01.025Z,9.32
2023-02-01T06:56:03.227Z,8.79
2023-02-01T07:01:08.261Z,8.99
2023-02-01T07:06:09.910Z,9.02
2023-02-01T07:11:12.417Z,8.82
2023-02-01T07:16:15.640Z,8.81
2023-02-01T07:21:17.032Z,8.65
2023-02-01T07:26:18.572Z,9.04
2023-02-01T07:31:21.931Z,8.98
2023-02-01T07:36:23.409Z,8.86
2023-02-01T07:41:24.884Z,8.62
2023-02-01T07:46:26.363Z,8.82
2023-02-01T07:51:27.827Z,8.67
2023-02-01T07:56:29.372Z,9.06
2023-02-01T08:01:30.839Z,8.96
2023-02-01T08:06:33.449Z,8.77
2023-02-01T08:11:35.093Z,9.04
2023-02-01T08:16:38.272Z,9.20
2023-02-01T08:21:39.723Z,9.20
2023-02-01T08:26:41.296Z,8.84
2023-02-01T08:31:42.950Z,8.90
2023-02-01T08:36:44.518Z,9.01
2023-02-01T08:42:05.963Z,9.06
2023-02-01T08:47:07.442Z,9.26
2023-02-01T08:52:15.824Z,9.31
2023-02-01T08:57:18.084Z,9.58
2023-02-01T09:02:19.735Z,10.00
2023-02-01T09:07:21.201Z,10.38
2023-02-01T09:12:22.864Z,10.28
2023-02-01T09:17:24.368Z,10.61
2023-02-01T09:22:25.851Z,10.47
2023-02-01T09:27:27.329Z,10.45
2023-02-01T09:32:28.903Z,10.36
2023-02-01T09:37:30.411Z,10.39
2023-02-01T09:42:58.342Z,10.37
2023-02-01T09:48:03.733Z,10.52
2023-02-01T09:53:30.220Z,10.38
2023-02-01T09:58:43.270Z,10.52
2023-02-01T10:03:44.743Z,10.08
2023-02-01T10:09:16.389Z,9.89
2023-02-01T10:14:29.957Z,10.24
2023-02-01T10:20:08.715Z,9.94
2023-02-01T10:25:27.426Z,10.02
2023-02-01T10:30:34.674Z,9.38
2023-02-01T10:35:37.536Z,9.38
2023-02-01T10:40:38.992Z,9.76
2023-02-01T10:45:40.680Z,8.94
2023-02-01T10:51:21.424Z,9.31
2023-02-01T10:56:29.276Z,10.02
2023-02-01T11:01:34.980Z,9.70
2023-02-01T11:06:40.874Z,9.56
2023-02-01T11:11:48.487Z,9.28
2023-02-01T11:16:51.365Z,9.91
2023-02-01T11:21:56.710Z,9.75
2023-02-01T11:26:58.833Z,8.91
2023-02-01T11:32:00.479Z,8.93
2023-02-01T11:37:02.133Z,8.86
2023-02-01T11:42:21.843Z,8.82
2023-02-01T11:47:25.711Z,8.87
2023-02-01T11:52:56.866Z,9.17
2023-02-01T11:58:13.383Z,9.19
2023-02-01T12:03:34.493Z,8.84
2023-02-01T12:08:50.668Z,9.00
2023-02-01T12:13:57.914Z,8.84
2023-02-01T12:19:18.278Z,8.78
2023-02-01T12:24:46.868Z,9.20
2023-02-01T12:30:11.618Z,9.10
2023-02-01T12:35:28.031Z,9.57
2023-02-01T12:40:47.465Z,9.45
2023-02-01T12:45:53.645Z,9.08
2023-02-01T12:50:57.130Z,7.04
2023-02-01T12:56:02.086Z,6.49
2023-02-01T13:01:09.641Z,6.71
2023-02-01T13:06:16.757Z,7.24
2023-02-01T13:11:32.604Z,7.50
2023-02-01T13:16:45.693Z,8.12
2023-02-01T13:21:49.706Z,8.04
2023-02-01T13:26:53.097Z,8.30
2023-02-01T13:32:18.143Z,8.67
2023-02-01T13:37:54.227Z,8.73
2023-02-01T13:43:00.468Z,8.56
2023-02-01T13:48:04.402Z,8.01
2023-02-01T13:53:12.856Z,8.48
2023-02-01T13:58:15.956Z,8.55
2023-02-01T14:03:24.290Z,8.62
2023-02-01T14:08:42.519Z,8.70
2023-02-01T14:13:43.998Z,8.90
2023-02-01T14:18:47.265Z,8.91
2023-02-01T14:23:57.177Z,9.01
2023-02-01T14:29:21.411Z,9.48
2023-02-01T14:34:36.742Z,9.34
2023-02-01T14:39:47.397Z,9.22
2023-02-01T14:44:58.310Z,9.18
2023-02-01T14:50:24.578Z,9.35
2023-02-01T14:55:30.410Z,9.12
2023-02-01T15:00:32.015Z,9.20
2023-02-01T15:05:34.902Z,9.01
2023-02-01T15:10:43.001Z,9.15
2023-02-01T15:15:44.502Z,9.32
2023-02-01T15:21:05.834Z,9.19
2023-02-01T15:26:07.435Z,9.03
2023-02-01T15:31:08.966Z,9.16
2023-02-01T15:36:13.581Z,8.82
2023-02-01T15:41:21.984Z,8.78
2023-02-01T15:46:33.221Z,8.88
2023-02-01T15:51:34.717Z,8.89
2023-02-01T15:56:39.483Z,8.84
2023-02-01T16:01:43.156Z,9.00
2023-02-01T16:06:49.903Z,8.92
2023-02-01T16:12:00.837Z,8.97
2023-02-01T16:17:03.427Z,9.06
2023-02-01T16:22:04.903Z,9.00
2023-02-01T16:27:07.979Z,8.92
2023-02-01T16:32:16.761Z,8.99
2023-02-01T16:37:21.188Z,9.00
2023-02-01T16:42:22.663Z,8.84
2023-02-01T16:47:24.510Z,8.92
2023-02-01T16:52:26.243Z,8.69
2023-02-01T16:57:28.663Z,8.72
2023-02-01T17:02:30.140Z,8.44
2023-02-01T17:07:31.613Z,8.81
2023-02-01T17:12:33.413Z,9.12
2023-02-01T17:17:39.682Z,9.14
2023-02-01T17:22:41.219Z,8.94
2023-02-01T17:27:42.702Z,9.03
2023-02-01T17:32:44.348Z,9.15
2023-02-01T17:37:46.104Z,9.04
2023-02-01T17:42:47.728Z,9.27
2023-02-01T17:47:49.234Z,9.33
2023-02-01T17:52:50.688Z,9.48
2023-02-01T17:57:52.200Z,9.29
2023-02-01T18:02:53.715Z,9.50
2023-02-01T18:07:55.223Z,9.55
2023-02-01T18:12:57.415Z,9.28
2023-02-01T18:17:59.417Z,9.35
2023-02-01T18:23:00.887Z,9.06
2023-02-01T18:28:02.424Z,9.01
2023-02-01T18:33:04.021Z,9.32
2023-02-01T18:38:05.561Z,9.30
2023-02-01T18:43:07.034Z,9.44
2023-02-01T18:48:09.339Z,9.61
2023-02-01T18:53:15.714Z,9.61
2023-02-01T18:58:17.450Z,9.52
2023-02-01T19:03:20.675Z,9.67
2023-02-01T19:08:24.348Z,9.84
2023-02-01T19:13:28.009Z,9.76
2023-02-01T19:18:30.716Z,9.42
2023-02-01T19:23:32.220Z,8.93
2023-02-01T19:28:33.723Z,9.07
2023-02-01T19:33:35.219Z,9.43
2023-02-01T19:38:36.887Z,9.59
2023-02-01T19:43:39.608Z,9.11
2023-02-01T19:48:41.062Z,9.20
2023-02-01T19:53:42.533Z,9.19
2023-02-01T19:58:44.064Z,9.07
2023-02-01T20:03:44.686Z,9.09
2023-02-01T20:08:47.900Z,9.27
2023-02-01T20:13:49.284Z,9.12
2023-02-01T20:18:50.774Z,9.07
2023-02-01T20:23:52.301Z,8.99
2023-02-01T20:28:55.696Z,8.78
2023-02-01T20:33:57.821Z,8.91
2023-02-01T20:38:59.781Z,9.03
2023-02-01T20:44:01.259Z,8.80
2023-02-01T20:49:02.772Z,8.63
2023-02-01T20:54:04.465Z,8.70
2023-02-01T20:59:10.677Z,8.65
2023-02-01T21:04:12.184Z,8.84
2023-02-01T21:09:13.689Z,9.06
2023-02-01T21:14:15.161Z,8.85
2023-02-01T21:19:17.074Z,8.31
2023-02-01T21:24:18.717Z,8.34
2023-02-01T21:29:20.218Z,8.26
2023-02-01T21:34:21.669Z,8.54
2023-02-01T21:39:23.132Z,8.25
2023-02-01T21:44:24.617Z,8.18
2023-02-01T21:49:27.551Z,8.49
2023-02-01T21:54:29.032Z,8.48
2023-02-01T21:59:30.498Z,8.39
2023-02-01T22:04:32.420Z,8.29
2023-02-01T22:09:33.910Z,8.22
2023-02-01T22:14:35.389Z,8.08
2023-02-01T22:19:36.891Z,8.19
2023-02-01T22:24:38.401Z,8.24
2023-02-01T22:29:40.060Z,8.17
2023-02-01T22:34:42.100Z,8.48
2023-02-01T22:39:43.588Z,8.71
2023-02-01T22:44:45.071Z,8.31
2023-02-01T22:49:46.540Z,7.62
2023-02-01T22:54:48.020Z,7.48
2023-02-01T22:59:49.499Z,7.50
2023-02-01T23:04:50.971Z,7.68
2023-02-01T23:09:52.527Z,7.76
2023-02-01T23:15:06.196Z,7.91
2023-02-01T23:20:08.752Z,8.07
2023-02-01T23:25:11.031Z,8.33
2023-02-01T23:30:12.700Z,8.27
2023-02-01T23:35:14.213Z,8.23
2023-02-01T23:40:15.680Z,8.25
2023-02-01T23:45:17.133Z,8.26
2023-02-01T23:50:18.698Z,8.41
2023-02-01T23:55:20.629Z,8.38
